Time;durP1;ratioP1;P1;durP2;ratioP2;P2;SDS_P1;SDS_P2;PMS_P1;PMS_P2;Temp;Humidity;BMP_temperature;BMP_pressure;BME280_temperature;BME280_humidity;BME280_pressure;Samples;Min_cycle;Max_cycle;Signal;HPM_P1;HPM_P2
2022/07/23 00:01:32;;;;;;;;;;;27.90;38.40;;;;;;5032144;28;19920;-62
2022/07/23 00:03:58;;;;;;;;;;;27.80;39.30;;;;;;5032131;28;20285;-60
2022/07/23 00:06:24;;;;;;;;;;;27.80;38.90;;;;;;5032001;28;20312;-57
2022/07/23 00:08:49;;;;;;;;;;;27.90;38.80;;;;;;5031874;28;19914;-63
2022/07/23 00:11:15;;;;;;;;;;;28.00;38.60;;;;;;5014386;28;19952;-59
2022/07/23 00:13:40;;;;;;;;;;;28.00;38.30;;;;;;5032176;28;19920;-57
2022/07/23 00:16:06;;;;;;;;;;;28.10;38.30;;;;;;5032086;28;20281;-55
2022/07/23 00:18:31;;;;;;;;;;;28.00;38.10;;;;;;5031931;28;19971;-58
2022/07/23 00:20:57;;;;;;;;;;;28.00;38.10;;;;;;5035060;28;20369;-57
2022/07/23 00:23:24;;;;;;;;;;;27.90;38.10;;;;;;5037767;28;19912;-57
2022/07/23 00:25:51;;;;;;;;;;;28.00;38.10;;;;;;5032349;28;19913;-57
2022/07/23 00:28:18;;;;;;;;;;;28.10;38.10;;;;;;5032079;28;19919;-58
2022/07/23 00:30:43;;;;;;;;;;;28.00;37.90;;;;;;5032110;28;20339;-57
2022/07/23 00:33:09;;;;;;;;;;;28.00;38.40;;;;;;5031708;28;20017;-58
2022/07/23 00:35:36;;;;;;;;;;;27.90;38.70;;;;;;5031859;28;20281;-58
2022/07/23 00:38:02;;;;;;;;;;;27.90;39.00;;;;;;5031939;28;19971;-56
2022/07/23 00:40:28;;;;;;;;;;;28.00;39.00;;;;;;5032752;28;19920;-56
2022/07/23 00:42:54;;;;;;;;;;;28.00;38.80;;;;;;5035736;28;19909;-56
2022/07/23 00:45:20;;;;;;;;;;;27.90;39.00;;;;;;5035625;28;20369;-58
2022/07/23 00:47:46;;;;;;;;;;;28.00;38.90;;;;;;5035514;28;19909;-60
2022/07/23 00:50:12;;;;;;;;;;;27.90;38.60;;;;;;5035726;28;19917;-57
2022/07/23 00:52:38;;;;;;;;;;;28.00;38.30;;;;;;5035529;28;20004;-56
2022/07/23 00:55:04;;;;;;;;;;;28.00;38.60;;;;;;5035430;28;19954;-58
2022/07/23 00:57:30;;;;;;;;;;;27.80;38.80;;;;;;5035344;28;20082;-56
2022/07/23 00:59:56;;;;;;;;;;;27.80;39.00;;;;;;5035506;28;20409;-59
2022/07/23 01:02:21;;;;;;;;;;;27.70;39.50;;;;;;5035356;28;19917;-57
2022/07/23 01:04:47;;;;;;;;;;;27.70;39.80;;;;;;5035315;28;19920;-58
2022/07/23 01:07:12;;;;;;;;;;;27.70;40.10;;;;;;5035326;28;19909;-62
2022/07/23 01:09:38;;;;;;;;;;;27.70;40.30;;;;;;5035266;28;19920;-59
2022/07/23 01:12:05;;;;;;;;;;;27.60;40.50;;;;;;5035579;28;20458;-61
2022/07/23 01:14:30;;;;;;;;;;;27.60;40.50;;;;;;5034983;28;20415;-60
2022/07/23 01:16:56;;;;;;;;;;;27.50;40.90;;;;;;5035037;28;19921;-57
2022/07/23 01:19:21;;;;;;;;;;;27.40;41.20;;;;;;5035157;28;20354;-56
2022/07/23 01:21:48;;;;;;;;;;;27.40;41.30;;;;;;5034902;28;20467;-57
2022/07/23 01:24:13;;;;;;;;;;;27.30;41.40;;;;;;5035074;28;20270;-56
2022/07/23 01:26:41;;;;;;;;;;;27.40;41.30;;;;;;5035001;28;19909;-58
2022/07/23 01:29:06;;;;;;;;;;;27.40;41.10;;;;;;5034935;28;19948;-57
2022/07/23 01:31:32;;;;;;;;;;;27.40;41.00;;;;;;5016965;28;19985;-64
2022/07/23 01:33:58;;;;;;;;;;;27.40;40.70;;;;;;5034679;28;19929;-59
2022/07/23 01:36:23;;;;;;;;;;;27.40;40.50;;;;;;5034772;28;20024;-59
2022/07/23 01:38:49;;;;;;;;;;;27.40;40.50;;;;;;5034778;28;19936;-61
2022/07/23 01:41:15;;;;;;;;;;;27.40;40.60;;;;;;5034736;28;20003;-58
2022/07/23 01:43:40;;;;;;;;;;;27.30;41.20;;;;;;5034791;28;20373;-56
2022/07/23 01:46:06;;;;;;;;;;;27.20;41.20;;;;;;5034664;28;20381;-58
2022/07/23 01:48:31;;;;;;;;;;;27.10;41.00;;;;;;5034812;28;20357;-61
2022/07/23 01:50:57;;;;;;;;;;;27.10;41.00;;;;;;5034624;28;19913;-56
2022/07/23 01:53:23;;;;;;;;;;;27.20;41.50;;;;;;5033683;28;20369;-58
2022/07/23 01:55:48;;;;;;;;;;;27.30;40.60;;;;;;5034969;28;19928;-58
2022/07/23 01:58:14;;;;;;;;;;;27.40;40.20;;;;;;5034565;28;19971;-56
2022/07/23 02:00:39;;;;;;;;;;;27.50;39.70;;;;;;5034546;28;19909;-56
2022/07/23 02:03:05;;;;;;;;;;;27.60;39.50;;;;;;5034366;28;19992;-56
2022/07/23 02:05:31;;;;;;;;;;;27.60;39.40;;;;;;5034437;28;19913;-57
2022/07/23 02:07:57;;;;;;;;;;;27.70;39.60;;;;;;5034498;28;20339;-59
2022/07/23 02:10:23;;;;;;;;;;;27.70;39.00;;;;;;5039767;28;19913;-58
2022/07/23 02:12:49;;;;;;;;;;;27.80;38.70;;;;;;5044921;28;19909;-61
2022/07/23 02:15:14;;;;;;;;;;;27.70;38.50;;;;;;5034782;28;19912;-60
2022/07/23 02:17:40;;;;;;;;;;;27.80;38.70;;;;;;5034384;28;19992;-59
2022/07/23 02:20:07;;;;;;;;;;;27.80;38.50;;;;;;5016673;28;19913;-57
2022/07/23 02:22:32;;;;;;;;;;;27.80;38.60;;;;;;5034597;28;19931;-58
2022/07/23 02:24:58;;;;;;;;;;;27.80;38.50;;;;;;5033869;28;20361;-58
2022/07/23 02:27:24;;;;;;;;;;;27.80;38.30;;;;;;5033929;28;19913;-59
2022/07/23 02:29:49;;;;;;;;;;;27.90;38.30;;;;;;5034245;28;19910;-59
2022/07/23 02:32:15;;;;;;;;;;;27.90;38.30;;;;;;5016003;28;19967;-59
2022/07/23 02:34:41;;;;;;;;;;;27.90;38.20;;;;;;5033471;28;19936;-60
2022/07/23 02:37:08;;;;;;;;;;;27.80;38.30;;;;;;5033534;28;19972;-60
2022/07/23 02:39:34;;;;;;;;;;;27.80;38.30;;;;;;5033646;28;19943;-62
2022/07/23 02:42:00;;;;;;;;;;;27.80;38.60;;;;;;5015773;28;19909;-60
2022/07/23 02:44:25;;;;;;;;;;;27.80;38.50;;;;;;5033122;28;19909;-57
2022/07/23 02:46:51;;;;;;;;;;;27.80;38.60;;;;;;5023220;28;19952;-64
2022/07/23 02:49:16;;;;;;;;;;;27.70;38.80;;;;;;5027594;28;19917;-62
2022/07/23 02:51:42;;;;;;;;;;;27.50;39.20;;;;;;5021913;28;19935;-61
2022/07/23 02:54:08;;;;;;;;;;;27.40;39.20;;;;;;5033206;28;20018;-57
2022/07/23 02:56:33;;;;;;;;;;;27.50;39.20;;;;;;5033125;28;19921;-61
2022/07/23 02:58:59;;;;;;;;;;;27.60;38.80;;;;;;5033231;28;19916;-64
2022/07/23 03:01:25;;;;;;;;;;;27.60;38.40;;;;;;5033280;28;19914;-64
2022/07/23 03:03:50;;;;;;;;;;;27.70;38.30;;;;;;5015094;28;20437;-61
2022/07/23 03:06:16;;;;;;;;;;;27.70;38.30;;;;;;5033149;28;19919;-59
2022/07/23 03:08:42;;;;;;;;;;;27.60;38.40;;;;;;5033067;28;20266;-60
2022/07/23 03:11:10;;;;;;;;;;;27.60;38.90;;;;;;5015174;28;19987;-59
2022/07/23 03:13:36;;;;;;;;;;;27.70;38.70;;;;;;5032940;28;19909;-63
2022/07/23 03:16:03;;;;;;;;;;;27.70;38.40;;;;;;5032843;28;20400;-63
2022/07/23 03:18:28;;;;;;;;;;;27.80;38.40;;;;;;5032964;28;19917;-63
2022/07/23 03:20:54;;;;;;;;;;;27.70;38.60;;;;;;5032710;28;20324;-64
2022/07/23 03:23:19;;;;;;;;;;;27.60;38.50;;;;;;5032740;28;20285;-60
2022/07/23 03:25:48;;;;;;;;;;;27.70;38.60;;;;;;5032878;28;19916;-64
2022/07/23 03:28:15;;;;;;;;;;;27.70;38.50;;;;;;5032792;28;20365;-65
2022/07/23 03:30:41;;;;;;;;;;;27.70;38.50;;;;;;5032797;28;19952;-62
2022/07/23 03:33:07;;;;;;;;;;;27.70;38.40;;;;;;5032923;28;19921;-63
2022/07/23 03:35:32;;;;;;;;;;;27.70;38.30;;;;;;5032710;28;19913;-59
2022/07/23 03:37:58;;;;;;;;;;;27.60;38.70;;;;;;5032739;28;19916;-56
2022/07/23 03:40:23;;;;;;;;;;;27.50;39.30;;;;;;5032694;28;19910;-56
2022/07/23 03:42:49;;;;;;;;;;;27.40;39.70;;;;;;5032753;28;19913;-57
2022/07/23 03:45:14;;;;;;;;;;;27.30;40.00;;;;;;5014786;28;19909;-61
2022/07/23 03:47:40;;;;;;;;;;;27.20;40.40;;;;;;5032595;28;20055;-56
2022/07/23 03:50:06;;;;;;;;;;;27.20;40.30;;;;;;5032519;28;19917;-59
2022/07/23 03:52:31;;;;;;;;;;;27.20;40.10;;;;;;5032297;28;19948;-56
2022/07/23 03:54:57;;;;;;;;;;;27.30;39.70;;;;;;5032341;28;20448;-56
2022/07/23 03:57:22;;;;;;;;;;;27.20;40.00;;;;;;5032168;28;19921;-56
2022/07/23 03:59:48;;;;;;;;;;;27.10;40.70;;;;;;5041007;28;19957;-56
2022/07/23 04:02:13;;;;;;;;;;;27.10;40.50;;;;;;5036153;28;19909;-58
2022/07/23 04:04:39;;;;;;;;;;;27.20;40.40;;;;;;5032197;28;20295;-56
2022/07/23 04:07:06;;;;;;;;;;;27.20;40.40;;;;;;5032374;28;19932;-56
2022/07/23 04:09:31;;;;;;;;;;;27.30;40.40;;;;;;5018202;28;19909;-56
2022/07/23 04:11:57;;;;;;;;;;;27.20;40.40;;;;;;5032126;28;19967;-61
2022/07/23 04:14:22;;;;;;;;;;;27.10;40.60;;;;;;5032206;28;19913;-57
2022/07/23 04:16:48;;;;;;;;;;;27.30;40.50;;;;;;5017647;28;19921;-57
2022/07/23 04:19:14;;;;;;;;;;;27.30;40.40;;;;;;5036317;28;19909;-57
2022/07/23 04:21:39;;;;;;;;;;;27.40;40.10;;;;;;5036136;28;20012;-57
2022/07/23 04:24:05;;;;;;;;;;;27.40;40.90;;;;;;5036064;28;19909;-55
2022/07/23 04:26:30;;;;;;;;;;;27.40;40.40;;;;;;5035986;28;20008;-56
2022/07/23 04:28:56;;;;;;;;;;;27.20;41.00;;;;;;5036222;28;20423;-56
2022/07/23 04:31:22;;;;;;;;;;;27.20;41.40;;;;;;5036099;28;20402;-56
2022/07/23 04:33:47;;;;;;;;;;;27.10;42.00;;;;;;5035685;28;20309;-57
2022/07/23 04:36:13;;;;;;;;;;;27.10;41.50;;;;;;5035971;28;20381;-56
2022/07/23 04:38:38;;;;;;;;;;;27.20;41.40;;;;;;5018206;28;20273;-56
2022/07/23 04:41:04;;;;;;;;;;;27.20;40.90;;;;;;5017994;28;19913;-56
2022/07/23 04:43:29;;;;;;;;;;;27.30;41.30;;;;;;5035717;28;19999;-56
2022/07/23 04:45:55;;;;;;;;;;;27.20;41.70;;;;;;5035779;28;19924;-56
2022/07/23 04:48:20;;;;;;;;;;;27.20;42.00;;;;;;5035908;28;19917;-57
2022/07/23 04:50:46;;;;;;;;;;;27.10;42.00;;;;;;5035581;28;19910;-56
2022/07/23 04:53:11;;;;;;;;;;;27.10;42.80;;;;;;5035602;28;19916;-56
2022/07/23 04:55:37;;;;;;;;;;;27.10;42.90;;;;;;5035484;28;19913;-56
2022/07/23 04:58:03;;;;;;;;;;;27.10;42.70;;;;;;5035498;28;19963;-59
2022/07/23 05:00:28;;;;;;;;;;;27.10;42.50;;;;;;5035462;28;19913;-59
2022/07/23 05:02:54;;;;;;;;;;;27.20;43.00;;;;;;5035366;28;20475;-57
2022/07/23 05:05:19;;;;;;;;;;;27.30;42.40;;;;;;5035473;28;19909;-63
2022/07/23 05:07:45;;;;;;;;;;;27.30;42.40;;;;;;5035177;28;19927;-64
2022/07/23 05:10:10;;;;;;;;;;;27.20;42.60;;;;;;5035191;28;20288;-62
2022/07/23 05:12:36;;;;;;;;;;;27.20;43.00;;;;;;5035275;28;19916;-61
2022/07/23 05:15:01;;;;;;;;;;;27.10;43.20;;;;;;5035062;28;19913;-64
2022/07/23 05:17:27;;;;;;;;;;;27.10;42.60;;;;;;5035187;28;20392;-61
2022/07/23 05:19:52;;;;;;;;;;;27.10;43.60;;;;;;5035073;28;19909;-61
2022/07/23 05:22:18;;;;;;;;;;;27.10;44.00;;;;;;5035232;28;19967;-63
2022/07/23 05:24:44;;;;;;;;;;;27.10;43.60;;;;;;5034811;28;19964;-62
2022/07/23 05:27:09;;;;;;;;;;;27.10;43.70;;;;;;5034875;28;19916;-64
2022/07/23 05:29:35;;;;;;;;;;;27.10;44.20;;;;;;5035032;28;19913;-63
2022/07/23 05:32:00;;;;;;;;;;;27.20;43.80;;;;;;5034672;28;19917;-65
2022/07/23 05:34:26;;;;;;;;;;;27.30;43.70;;;;;;5034594;28;19925;-62
2022/07/23 05:36:51;;;;;;;;;;;27.30;44.10;;;;;;5034586;28;19917;-60
2022/07/23 05:39:17;;;;;;;;;;;27.30;44.40;;;;;;5034649;28;19909;-58
2022/07/23 05:41:43;;;;;;;;;;;27.50;43.40;;;;;;5034138;28;19913;-63
2022/07/23 05:44:08;;;;;;;;;;;27.60;42.80;;;;;;5034249;28;19928;-62
2022/07/23 05:46:34;;;;;;;;;;;27.80;42.00;;;;;;5034594;28;19979;-62
2022/07/23 05:48:59;;;;;;;;;;;27.80;42.50;;;;;;5033405;28;19920;-58
2022/07/23 05:51:25;;;;;;;;;;;28.00;42.40;;;;;;5036707;28;19916;-61
2022/07/23 05:53:51;;;;;;;;;;;28.20;42.60;;;;;;5040476;28;19935;-63
2022/07/23 05:56:17;;;;;;;;;;;28.60;41.40;;;;;;5034502;28;19960;-57
2022/07/23 05:58:42;;;;;;;;;;;29.10;40.50;;;;;;5034124;28;19936;-56
2022/07/23 06:01:08;;;;;;;;;;;29.60;39.50;;;;;;5015365;28;19916;-57
2022/07/23 06:03:34;;;;;;;;;;;29.90;38.60;;;;;;5033015;28;20354;-58
2022/07/23 06:05:59;;;;;;;;;;;30.30;38.10;;;;;;5033328;28;20274;-62
2022/07/23 06:08:25;;;;;;;;;;;30.60;37.60;;;;;;5033137;28;20316;-57
2022/07/23 06:10:50;;;;;;;;;;;30.90;37.10;;;;;;5034044;28;19920;-58
2022/07/23 06:13:17;;;;;;;;;;;31.10;36.50;;;;;;5034052;28;19917;-58
2022/07/23 06:15:43;;;;;;;;;;;31.40;36.60;;;;;;5034061;28;19917;-59
2022/07/23 06:18:08;;;;;;;;;;;31.60;36.90;;;;;;5034009;28;20009;-61
2022/07/23 06:20:34;;;;;;;;;;;31.80;36.00;;;;;;5033731;28;19912;-64
2022/07/23 06:22:59;;;;;;;;;;;32.00;36.00;;;;;;5033716;28;19947;-58
2022/07/23 06:25:25;;;;;;;;;;;32.10;35.20;;;;;;5033652;28;19963;-56
2022/07/23 06:27:51;;;;;;;;;;;32.20;35.50;;;;;;5033787;28;19955;-60
2022/07/23 06:30:17;;;;;;;;;;;32.40;34.50;;;;;;5032228;28;19972;-60
2022/07/23 06:32:42;;;;;;;;;;;32.50;33.90;;;;;;5032584;28;19971;-60
2022/07/23 06:35:08;;;;;;;;;;;32.70;33.50;;;;;;5032507;28;20383;-62
2022/07/23 06:37:33;;;;;;;;;;;32.80;32.50;;;;;;5032138;28;20381;-62
2022/07/23 06:39:59;;;;;;;;;;;33.00;32.10;;;;;;5014886;28;19952;-60
2022/07/23 06:42:25;;;;;;;;;;;33.00;31.40;;;;;;5033434;28;19917;-62
2022/07/23 06:44:50;;;;;;;;;;;33.20;31.30;;;;;;5033488;28;20005;-61
2022/07/23 06:47:16;;;;;;;;;;;33.20;31.10;;;;;;5031978;28;19960;-68
2022/07/23 06:49:41;;;;;;;;;;;33.30;31.40;;;;;;5032301;28;20000;-55
2022/07/23 06:52:07;;;;;;;;;;;33.40;31.50;;;;;;5032108;28;19920;-57
2022/07/23 06:54:33;;;;;;;;;;;33.40;31.50;;;;;;5032095;28;20266;-56
2022/07/23 06:56:58;;;;;;;;;;;33.40;31.90;;;;;;5032675;28;19944;-59
2022/07/23 06:59:24;;;;;;;;;;;33.40;32.20;;;;;;5033186;28;20297;-58
2022/07/23 07:01:50;;;;;;;;;;;33.40;32.50;;;;;;5033195;28;19909;-61
2022/07/23 07:04:15;;;;;;;;;;;33.40;32.90;;;;;;5032991;28;20020;-53
2022/07/23 07:06:41;;;;;;;;;;;33.50;31.90;;;;;;5032970;28;19917;-54
2022/07/23 07:09:06;;;;;;;;;;;33.40;31.80;;;;;;5032998;28;19913;-54
2022/07/23 07:11:32;;;;;;;;;;;33.40;32.60;;;;;;5032925;28;19916;-54
2022/07/23 07:13:57;;;;;;;;;;;33.30;32.60;;;;;;5032671;28;19919;-55
2022/07/23 07:16:23;;;;;;;;;;;33.30;33.20;;;;;;5032874;28;19944;-59
2022/07/23 07:18:48;;;;;;;;;;;33.40;32.20;;;;;;5032918;28;19963;-54
2022/07/23 07:21:14;;;;;;;;;;;33.40;31.70;;;;;;5032658;28;19917;-55
2022/07/23 07:23:40;;;;;;;;;;;33.50;32.10;;;;;;5032944;28;20399;-59
2022/07/23 07:26:05;;;;;;;;;;;33.50;32.20;;;;;;5031207;28;20337;-59
2022/07/23 07:28:31;;;;;;;;;;;33.60;32.80;;;;;;5014025;28;19923;-57
2022/07/23 07:30:57;;;;;;;;;;;33.60;33.10;;;;;;5031581;28;19916;-57
2022/07/23 07:33:22;;;;;;;;;;;33.50;33.80;;;;;;5014503;28;19928;-58
2022/07/23 07:35:48;;;;;;;;;;;33.40;34.40;;;;;;5032807;28;20448;-60
2022/07/23 07:38:13;;;;;;;;;;;33.40;36.50;;;;;;5032890;28;19909;-62
2022/07/23 07:40:39;;;;;;;;;;;33.20;37.00;;;;;;5032750;28;19962;-55
2022/07/23 07:43:05;;;;;;;;;;;33.00;38.00;;;;;;5031967;28;19920;-56
2022/07/23 07:45:31;;;;;;;;;;;32.90;38.10;;;;;;5032672;28;20008;-56
2022/07/23 07:47:57;;;;;;;;;;;32.80;39.80;;;;;;5015183;28;20401;-54
2022/07/23 07:50:23;;;;;;;;;;;32.70;38.90;;;;;;5014076;28;20012;-54
2022/07/23 07:52:48;;;;;;;;;;;32.70;40.00;;;;;;5032347;28;20377;-54
2022/07/23 07:55:14;;;;;;;;;;;32.60;39.70;;;;;;5032286;28;20055;-53
2022/07/23 07:57:40;;;;;;;;;;;32.70;39.10;;;;;;5032170;28;20381;-54
2022/07/23 08:00:06;;;;;;;;;;;32.80;36.70;;;;;;5014586;28;19924;-53
2022/07/23 08:02:46;;;;;;;;;;;32.90;35.90;;;;;;5032403;28;19920;-54
2022/07/23 08:05:12;;;;;;;;;;;33.00;36.00;;;;;;5032054;28;19917;-54
2022/07/23 08:07:39;;;;;;;;;;;33.20;35.40;;;;;;5032393;28;19950;-54
2022/07/23 08:10:05;;;;;;;;;;;33.30;35.30;;;;;;5032005;28;19913;-53
2022/07/23 08:12:41;;;;;;;;;;;33.40;34.60;;;;;;5014400;28;19913;-53
2022/07/23 08:15:07;;;;;;;;;;;33.50;34.70;;;;;;5031932;28;19916;-53
2022/07/23 08:17:32;;;;;;;;;;;33.50;34.80;;;;;;5031895;28;20262;-54
2022/07/23 08:19:58;;;;;;;;;;;33.60;34.80;;;;;;5031813;28;19916;-53
2022/07/23 08:22:23;;;;;;;;;;;33.60;33.20;;;;;;5032097;28;20373;-53
2022/07/23 08:24:49;;;;;;;;;;;33.70;30.80;;;;;;5031889;28;20338;-54
2022/07/23 08:27:14;;;;;;;;;;;33.70;29.80;;;;;;5032041;28;20285;-54
2022/07/23 08:29:40;;;;;;;;;;;33.80;30.00;;;;;;5032050;28;19913;-54
2022/07/23 08:32:05;;;;;;;;;;;33.70;29.20;;;;;;5031767;28;19913;-54
2022/07/23 08:34:31;;;;;;;;;;;33.80;29.20;;;;;;5031800;28;19921;-55
2022/07/23 08:36:57;;;;;;;;;;;33.80;29.00;;;;;;5031856;28;19928;-53
2022/07/23 08:39:22;;;;;;;;;;;33.80;29.60;;;;;;5031918;28;19915;-54
2022/07/23 08:41:48;;;;;;;;;;;33.70;30.00;;;;;;5014424;28;20298;-54
2022/07/23 08:44:16;;;;;;;;;;;33.60;30.60;;;;;;5031567;28;19917;-54
2022/07/23 08:46:41;;;;;;;;;;;33.50;30.60;;;;;;5031919;28;20416;-52
2022/07/23 08:49:07;;;;;;;;;;;33.60;31.30;;;;;;5031781;28;19952;-53
2022/07/23 08:51:33;;;;;;;;;;;33.60;31.10;;;;;;5031820;28;20401;-57
2022/07/23 08:54:00;;;;;;;;;;;33.60;30.50;;;;;;5031898;28;20278;-53
2022/07/23 08:56:26;;;;;;;;;;;33.70;30.00;;;;;;5027844;28;20416;-58
2022/07/23 08:58:53;;;;;;;;;;;33.80;30.50;;;;;;5031152;28;19971;-53
2022/07/23 09:01:19;;;;;;;;;;;33.70;30.20;;;;;;5031626;28;19909;-53
2022/07/23 09:03:44;;;;;;;;;;;33.70;30.00;;;;;;5034724;28;19910;-53
2022/07/23 09:06:10;;;;;;;;;;;33.70;29.80;;;;;;5034950;28;19913;-54
2022/07/23 09:08:39;;;;;;;;;;;33.70;30.20;;;;;;5033292;28;20000;-53
2022/07/23 09:11:08;;;;;;;;;;;33.70;30.20;;;;;;5034110;28;19956;-52
2022/07/23 09:13:37;;;;;;;;;;;33.80;30.00;;;;;;5031145;28;20010;-54
2022/07/23 09:16:03;;;;;;;;;;;33.80;30.00;;;;;;5033590;28;19928;-53
2022/07/23 09:18:39;;;;;;;;;;;33.70;29.70;;;;;;5035377;28;19913;-54
2022/07/23 09:21:06;;;;;;;;;;;33.80;30.20;;;;;;5036111;28;19920;-54
2022/07/23 09:23:43;;;;;;;;;;;33.80;30.00;;;;;;5036613;28;19913;-53
2022/07/23 09:26:31;;;;;;;;;;;33.80;29.70;;;;;;5034587;28;19913;-57
2022/07/23 09:28:58;;;;;;;;;;;33.80;29.60;;;;;;5035888;28;20010;-56
2022/07/23 09:31:24;;;;;;;;;;;33.80;29.40;;;;;;5034980;28;19996;-54
2022/07/23 09:33:50;;;;;;;;;;;33.80;29.80;;;;;;5035505;28;20016;-56
2022/07/23 09:36:26;;;;;;;;;;;33.80;29.50;;;;;;5034683;28;20015;-56
2022/07/23 09:38:52;;;;;;;;;;;33.80;29.40;;;;;;5034688;28;19917;-61
2022/07/23 09:41:17;;;;;;;;;;;33.90;28.70;;;;;;5034665;28;19915;-55
2022/07/23 09:43:43;;;;;;;;;;;33.80;28.50;;;;;;5034606;28;19909;-54
2022/07/23 09:46:26;;;;;;;;;;;33.80;28.90;;;;;;5034532;28;19913;-57
2022/07/23 09:48:52;;;;;;;;;;;33.90;28.40;;;;;;5034530;28;19944;-57
2022/07/23 09:51:25;;;;;;;;;;;33.90;28.40;;;;;;5034297;28;19916;-57
2022/07/23 09:53:51;;;;;;;;;;;33.90;28.20;;;;;;5034430;28;20351;-57
2022/07/23 09:56:17;;;;;;;;;;;33.80;28.20;;;;;;5034447;28;19925;-56
2022/07/23 09:58:48;;;;;;;;;;;33.70;28.00;;;;;;5034400;28;19909;-58
2022/07/23 10:01:14;;;;;;;;;;;34.00;28.00;;;;;;5034309;28;19917;-64
2022/07/23 10:03:40;;;;;;;;;;;34.20;27.30;;;;;;5034301;28;19913;-62
2022/07/23 10:06:07;;;;;;;;;;;34.50;27.00;;;;;;5033899;28;19913;-64
2022/07/23 10:08:33;;;;;;;;;;;34.70;27.20;;;;;;5034667;28;19967;-63
2022/07/23 10:11:00;;;;;;;;;;;34.80;26.90;;;;;;5034153;28;19913;-63
2022/07/23 10:15:51;;;;;;;;;;;34.80;27.00;;;;;;5033058;28;20314;-61
2022/07/23 10:18:17;;;;;;;;;;;34.70;27.70;;;;;;5029391;28;19916;-61
2022/07/23 10:20:43;;;;;;;;;;;34.90;27.20;;;;;;5032578;28;20412;-61
2022/07/23 10:23:27;;;;;;;;;;;34.80;27.20;;;;;;5032936;28;19910;-61
2022/07/23 10:26:08;;;;;;;;;;;35.00;27.10;;;;;;5020875;28;20000;-65
2022/07/23 10:28:48;;;;;;;;;;;34.90;27.30;;;;;;5013122;28;19956;-60
2022/07/23 10:31:25;;;;;;;;;;;34.90;27.30;;;;;;5027220;28;19921;-63
2022/07/23 10:33:57;;;;;;;;;;;34.80;27.00;;;;;;5025163;28;19932;-61
2022/07/23 10:36:39;;;;;;;;;;;34.60;27.10;;;;;;5026255;28;19964;-61
2022/07/23 10:39:08;;;;;;;;;;;34.60;27.50;;;;;;5021551;28;19939;-62
2022/07/23 10:41:34;;;;;;;;;;;34.60;27.30;;;;;;5032358;28;19913;-60
2022/07/23 10:44:14;;;;;;;;;;;34.70;27.40;;;;;;5032489;28;19913;-59
2022/07/23 10:47:07;;;;;;;;;;;34.60;27.30;;;;;;5024458;28;19924;-60
2022/07/23 10:49:33;;;;;;;;;;;34.50;27.50;;;;;;5032464;28;19909;-59
2022/07/23 10:52:14;;;;;;;;;;;34.60;27.40;;;;;;5031738;28;19909;-59
2022/07/23 10:54:39;;;;;;;;;;;34.50;27.30;;;;;;5030524;28;19917;-57
2022/07/23 10:57:06;;;;;;;;;;;34.50;27.20;;;;;;5031626;28;19947;-55
2022/07/23 10:59:52;;;;;;;;;;;34.50;27.50;;;;;;5031623;28;20424;-58
2022/07/23 11:02:21;;;;;;;;;;;34.40;27.10;;;;;;5028675;28;19913;-57
2022/07/23 11:04:51;;;;;;;;;;;34.40;27.00;;;;;;5029266;28;19917;-59
2022/07/23 11:07:16;;;;;;;;;;;34.40;27.20;;;;;;5028394;28;19955;-58
2022/07/23 11:09:43;;;;;;;;;;;34.40;27.20;;;;;;5020141;28;19910;-59
2022/07/23 11:12:21;;;;;;;;;;;34.30;27.30;;;;;;5032856;28;20365;-58
2022/07/23 11:15:06;;;;;;;;;;;34.30;27.30;;;;;;5031893;28;20284;-57
2022/07/23 11:17:51;;;;;;;;;;;34.30;27.30;;;;;;5031874;28;20431;-58
2022/07/23 11:20:18;;;;;;;;;;;34.20;27.30;;;;;;5019829;28;19924;-58
2022/07/23 11:22:44;;;;;;;;;;;34.20;27.40;;;;;;5031250;28;20012;-58
2022/07/23 11:25:13;;;;;;;;;;;34.20;27.70;;;;;;5030624;28;20092;-57
2022/07/23 11:27:39;;;;;;;;;;;34.10;27.60;;;;;;5030733;28;19941;-58
2022/07/23 11:30:05;;;;;;;;;;;34.20;27.90;;;;;;5031266;28;19909;-57
2022/07/23 11:32:34;;;;;;;;;;;34.20;27.70;;;;;;5031048;28;19927;-57
2022/07/23 11:35:00;;;;;;;;;;;34.30;27.50;;;;;;5031120;28;19963;-57
2022/07/23 11:37:27;;;;;;;;;;;34.30;28.00;;;;;;5031061;28;19917;-57
2022/07/23 11:39:55;;;;;;;;;;;34.20;27.80;;;;;;5031397;28;19939;-57
2022/07/23 11:42:20;;;;;;;;;;;34.20;27.70;;;;;;5031270;28;19939;-58
2022/07/23 11:44:46;;;;;;;;;;;34.20;27.90;;;;;;5031347;28;20492;-57
2022/07/23 11:47:12;;;;;;;;;;;34.10;28.00;;;;;;5026314;28;19913;-57
2022/07/23 11:49:38;;;;;;;;;;;34.00;28.30;;;;;;5030999;28;20365;-56
2022/07/23 11:52:08;;;;;;;;;;;34.00;28.30;;;;;;5028970;28;19955;-58
2022/07/23 11:54:34;;;;;;;;;;;34.00;28.60;;;;;;5031158;28;19917;-57
2022/07/23 11:57:01;;;;;;;;;;;34.10;28.70;;;;;;5031192;28;19947;-60
2022/07/23 11:59:26;;;;;;;;;;;34.10;28.60;;;;;;5030735;28;19917;-57
2022/07/23 12:01:56;;;;;;;;;;;34.00;28.90;;;;;;5029870;28;20024;-57
2022/07/23 12:04:21;;;;;;;;;;;34.00;28.90;;;;;;5030430;28;19959;-57
2022/07/23 12:06:47;;;;;;;;;;;34.00;29.10;;;;;;5030493;28;19913;-58
2022/07/23 12:09:13;;;;;;;;;;;34.10;29.10;;;;;;5030496;28;19913;-58
2022/07/23 12:11:38;;;;;;;;;;;34.10;29.30;;;;;;5030806;28;19917;-59
2022/07/23 12:14:04;;;;;;;;;;;34.20;29.20;;;;;;5030370;28;20409;-57
2022/07/23 12:16:29;;;;;;;;;;;34.10;29.00;;;;;;5013129;28;19917;-59
2022/07/23 12:18:55;;;;;;;;;;;34.10;29.30;;;;;;5031994;28;19909;-58
2022/07/23 12:21:22;;;;;;;;;;;34.10;29.40;;;;;;5031696;28;20297;-58
2022/07/23 12:23:48;;;;;;;;;;;34.00;29.40;;;;;;5031036;28;19920;-59
2022/07/23 12:26:14;;;;;;;;;;;34.00;28.10;;;;;;5031990;28;20012;-59
2022/07/23 12:28:41;;;;;;;;;;;34.00;28.10;;;;;;5031945;28;19996;-57
2022/07/23 12:31:06;;;;;;;;;;;33.90;28.40;;;;;;5031994;28;19917;-57
2022/07/23 12:33:33;;;;;;;;;;;34.00;28.60;;;;;;5031669;28;19921;-58
2022/07/23 12:36:06;;;;;;;;;;;34.00;28.70;;;;;;5031776;28;19940;-57
2022/07/23 12:38:40;;;;;;;;;;;34.10;28.90;;;;;;5035741;28;20376;-58
2022/07/23 12:41:05;;;;;;;;;;;34.00;28.30;;;;;;5017991;28;19913;-58
2022/07/23 12:43:32;;;;;;;;;;;34.00;28.20;;;;;;5035695;28;20369;-58
2022/07/23 12:46:01;;;;;;;;;;;33.90;28.00;;;;;;5032680;28;20266;-57
2022/07/23 12:48:30;;;;;;;;;;;33.90;27.40;;;;;;5025131;28;19909;-58
2022/07/23 12:51:02;;;;;;;;;;;33.90;26.80;;;;;;5033874;28;20273;-58
2022/07/23 12:53:27;;;;;;;;;;;33.90;26.60;;;;;;5030342;28;19935;-58
2022/07/23 12:56:05;;;;;;;;;;;33.90;26.80;;;;;;5037089;28;19909;-59
2022/07/23 12:58:40;;;;;;;;;;;33.90;26.20;;;;;;5035455;28;19913;-58
2022/07/23 13:01:05;;;;;;;;;;;33.90;26.10;;;;;;5035311;28;19995;-58
2022/07/23 13:03:32;;;;;;;;;;;33.90;26.00;;;;;;5035275;28;20376;-59
2022/07/23 13:05:58;;;;;;;;;;;33.90;25.90;;;;;;5035414;28;19913;-58
2022/07/23 13:08:25;;;;;;;;;;;33.80;26.10;;;;;;5035150;28;20035;-58
2022/07/23 13:10:51;;;;;;;;;;;33.80;26.30;;;;;;5034308;28;19960;-58
2022/07/23 13:13:21;;;;;;;;;;;33.90;26.50;;;;;;5035082;28;19964;-57
2022/07/23 13:15:47;;;;;;;;;;;33.90;26.60;;;;;;5035028;28;19936;-57
2022/07/23 13:18:12;;;;;;;;;;;33.90;26.60;;;;;;5035125;28;20357;-58
2022/07/23 13:20:38;;;;;;;;;;;33.70;27.10;;;;;;5034516;28;19979;-58
2022/07/23 13:23:05;;;;;;;;;;;33.80;27.30;;;;;;5033939;28;19955;-58
2022/07/23 13:25:31;;;;;;;;;;;33.70;27.00;;;;;;5033758;28;20365;-59
2022/07/23 13:27:56;;;;;;;;;;;33.70;26.20;;;;;;5033756;28;19964;-59
2022/07/23 13:30:22;;;;;;;;;;;33.70;25.70;;;;;;5033430;28;19918;-59
2022/07/23 13:32:48;;;;;;;;;;;33.80;25.60;;;;;;5033676;28;19928;-57
2022/07/23 13:35:14;;;;;;;;;;;33.90;25.90;;;;;;5033528;28;19917;-58
2022/07/23 13:37:40;;;;;;;;;;;34.00;26.90;;;;;;5033560;28;19929;-57
2022/07/23 13:40:06;;;;;;;;;;;34.10;26.40;;;;;;5015784;28;19913;-58
2022/07/23 13:42:31;;;;;;;;;;;34.00;26.10;;;;;;5033274;28;20131;-58
2022/07/23 13:44:57;;;;;;;;;;;34.20;27.10;;;;;;5015602;28;20377;-56
2022/07/23 13:47:22;;;;;;;;;;;34.20;27.30;;;;;;5032823;28;19913;-59
2022/07/23 13:49:48;;;;;;;;;;;34.30;27.10;;;;;;5032770;28;20028;-58
2022/07/23 13:52:13;;;;;;;;;;;34.30;27.10;;;;;;5033816;28;19963;-57
2022/07/23 13:54:39;;;;;;;;;;;34.30;26.80;;;;;;5034377;28;19920;-57
2022/07/23 13:57:04;;;;;;;;;;;34.30;27.30;;;;;;5034396;28;20439;-57
2022/07/23 13:59:30;;;;;;;;;;;34.20;28.00;;;;;;5016510;28;20312;-59
2022/07/23 14:01:55;;;;;;;;;;;34.20;29.10;;;;;;5034275;28;19913;-59
2022/07/23 14:04:21;;;;;;;;;;;34.20;29.00;;;;;;5034372;28;19913;-59
2022/07/23 14:06:47;;;;;;;;;;;34.20;28.90;;;;;;5030118;28;20013;-60
2022/07/23 14:09:12;;;;;;;;;;;34.40;28.90;;;;;;5024496;28;19913;-59
2022/07/23 14:11:38;;;;;;;;;;;34.40;29.20;;;;;;5033982;28;19909;-59
2022/07/23 14:14:04;;;;;;;;;;;34.50;29.10;;;;;;5033956;28;19952;-59
2022/07/23 14:16:30;;;;;;;;;;;34.50;28.50;;;;;;5033941;28;19925;-59